createdAt,value
2022-11-27T00:00:31.610Z,95.10
2022-11-27T00:01:14.806Z,95.10
2022-11-27T00:01:46.618Z,95.10
2022-11-27T00:02:18.400Z,95.10
2022-11-27T00:02:50.240Z,95.10
2022-11-27T00:03:22.176Z,95.10
2022-11-27T00:03:55.833Z,95.10
2022-11-27T00:04:27.696Z,95.10
2022-11-27T00:04:59.499Z,95.10
2022-11-27T00:05:31.291Z,95.10
2022-11-27T00:06:03.113Z,95.10
2022-11-27T00:06:35.749Z,95.20
2022-11-27T00:07:07.527Z,95.20
2022-11-27T00:07:39.444Z,95.30
2022-11-27T00:08:11.569Z,95.20
2022-11-27T00:08:44.959Z,95.30
2022-11-27T00:09:17.153Z,95.20
2022-11-27T00:09:48.853Z,95.20
2022-11-27T00:10:20.780Z,95.20
2022-11-27T00:10:52.638Z,95.50
2022-11-27T00:11:26.571Z,95.20
2022-11-27T00:11:58.312Z,95.20
2022-11-27T00:12:31.139Z,95.30
2022-11-27T00:13:03.107Z,95.30
2022-11-27T00:13:35.075Z,95.30
2022-11-27T00:14:08.480Z,95.30
2022-11-27T00:14:40.274Z,95.30
2022-11-27T00:15:16.954Z,95.30
2022-11-27T00:15:49.182Z,95.30
2022-11-27T00:16:22.809Z,95.40
2022-11-27T00:16:54.640Z,95.30
2022-11-27T00:17:26.489Z,95.40
2022-11-27T00:17:58.245Z,95.40
2022-11-27T00:18:30.051Z,95.40
2022-11-27T00:19:01.851Z,95.40
2022-11-27T00:19:33.679Z,95.40
2022-11-27T00:20:06.160Z,95.40
2022-11-27T00:20:37.898Z,95.40
2022-11-27T00:21:15.122Z,95.40
2022-11-27T00:21:46.947Z,95.40
2022-11-27T00:22:18.709Z,95.40
2022-11-27T00:22:50.418Z,95.40
2022-11-27T00:23:22.278Z,95.40
2022-11-27T00:23:55.625Z,95.50
2022-11-27T00:24:27.415Z,95.50
2022-11-27T00:24:59.128Z,95.30
2022-11-27T00:25:31.235Z,95.40
2022-11-27T00:26:04.363Z,95.40
2022-11-27T00:26:38.296Z,95.40
2022-11-27T00:27:10.698Z,95.40
2022-11-27T00:27:43.333Z,95.40
2022-11-27T00:28:15.068Z,95.40
2022-11-27T00:28:46.897Z,95.40
2022-11-27T00:29:18.609Z,95.50
2022-11-27T00:29:50.478Z,95.40
2022-11-27T00:30:22.387Z,95.40
2022-11-27T00:30:58.070Z,95.40
2022-11-27T00:31:32.762Z,95.40
2022-11-27T00:32:08.014Z,95.50
2022-11-27T00:32:39.877Z,95.40
2022-11-27T00:33:11.948Z,95.40
2022-11-27T00:33:44.543Z,95.50
2022-11-27T00:34:16.328Z,95.40
2022-11-27T00:34:48.072Z,95.40
2022-11-27T00:35:19.900Z,95.40
2022-11-27T00:35:51.766Z,95.40
2022-11-27T00:36:24.398Z,95.30
2022-11-27T00:36:56.179Z,95.40
2022-11-27T00:37:28.011Z,95.40
2022-11-27T00:37:59.789Z,95.50
2022-11-27T00:38:35.927Z,95.30
2022-11-27T00:39:10.667Z,95.30
2022-11-27T00:39:42.469Z,95.30
2022-11-27T00:40:14.584Z,95.30
2022-11-27T00:40:47.756Z,95.30
2022-11-27T00:41:28.221Z,95.30
2022-11-27T00:42:00.076Z,95.30
2022-11-27T00:42:31.808Z,95.40
2022-11-27T00:43:03.593Z,95.40
2022-11-27T00:43:43.714Z,95.40
2022-11-27T00:44:16.673Z,95.40
2022-11-27T00:44:48.460Z,95.40
2022-11-27T00:45:20.286Z,95.40
2022-11-27T00:45:52.050Z,95.40
2022-11-27T00:46:29.040Z,95.40
2022-11-27T00:47:01.168Z,95.40
2022-11-27T00:47:32.970Z,95.40
2022-11-27T00:48:05.145Z,95.70
2022-11-27T00:48:37.032Z,95.40
2022-11-27T00:49:11.424Z,95.30
2022-11-27T00:49:43.455Z,95.30
2022-11-27T00:50:16.548Z,95.40
2022-11-27T00:50:48.359Z,95.40
2022-11-27T00:51:22.383Z,95.40
2022-11-27T00:51:54.136Z,95.40
2022-11-27T00:52:25.975Z,95.40
2022-11-27T00:53:01.251Z,95.40
2022-11-27T00:53:34.116Z,95.50
2022-11-27T00:54:06.343Z,95.40
2022-11-27T00:54:38.289Z,95.40
2022-11-27T00:55:10.407Z,95.40
2022-11-27T00:55:42.168Z,95.40
2022-11-27T00:56:22.772Z,95.40
2022-11-27T00:56:54.584Z,95.40
2022-11-27T00:57:26.463Z,95.40
2022-11-27T00:57:58.184Z,95.60
2022-11-27T00:58:30.769Z,95.40
2022-11-27T00:59:03.525Z,95.40
2022-11-27T00:59:35.365Z,95.60
2022-11-27T01:00:08.042Z,95.40
2022-11-27T01:00:39.843Z,95.40
2022-11-27T01:01:18.852Z,95.40
2022-11-27T01:01:50.932Z,95.40
2022-11-27T01:02:23.291Z,95.40
2022-11-27T01:02:55.162Z,95.40
2022-11-27T01:03:28.809Z,95.40
2022-11-27T01:04:01.968Z,95.30
2022-11-27T01:04:33.768Z,95.60
2022-11-27T01:05:06.033Z,95.00
2022-11-27T01:05:37.905Z,95.40
2022-11-27T01:06:10.513Z,95.40
2022-11-27T01:06:43.428Z,95.40
2022-11-27T01:07:15.293Z,95.40
2022-11-27T01:07:47.166Z,95.40
2022-11-27T01:08:19.588Z,95.50
2022-11-27T01:08:51.404Z,95.40
2022-11-27T01:09:23.259Z,95.40
2022-11-27T01:09:55.027Z,94.90
2022-11-27T01:10:26.758Z,95.40
2022-11-27T01:10:59.030Z,95.40
2022-11-27T01:11:33.692Z,95.40
2022-11-27T01:12:05.958Z,95.40
2022-11-27T01:12:37.801Z,95.40
2022-11-27T01:13:09.560Z,95.40
2022-11-27T01:13:41.682Z,95.40
2022-11-27T01:14:17.951Z,95.40
2022-11-27T01:14:49.762Z,95.40
2022-11-27T01:15:21.699Z,95.40
2022-11-27T01:16:04.084Z,95.40
2022-11-27T01:16:42.613Z,95.40
2022-11-27T01:17:14.844Z,95.40
2022-11-27T01:17:46.705Z,95.40
2022-11-27T01:18:18.491Z,95.70
2022-11-27T01:18:51.960Z,95.40
2022-11-27T01:19:23.762Z,95.60
2022-11-27T01:19:55.565Z,95.40
2022-11-27T01:20:27.342Z,95.40
2022-11-27T01:20:59.411Z,95.40
2022-11-27T01:21:34.652Z,95.40
2022-11-27T01:22:06.443Z,95.40
2022-11-27T01:22:38.216Z,95.40
2022-11-27T01:23:09.985Z,95.40
2022-11-27T01:23:41.962Z,95.40
2022-11-27T01:24:15.587Z,95.40
2022-11-27T01:24:47.431Z,95.40
2022-11-27T01:25:21.946Z,95.40
2022-11-27T01:25:59.890Z,95.40
2022-11-27T01:26:32.269Z,95.40
2022-11-27T01:27:04.017Z,95.30
2022-11-27T01:27:35.804Z,95.40
2022-11-27T01:28:07.539Z,95.40
2022-11-27T01:28:40.297Z,95.70
2022-11-27T01:29:12.191Z,94.80
2022-11-27T01:29:45.087Z,95.40
2022-11-27T01:30:16.862Z,95.40
2022-11-27T01:30:49.203Z,95.30
2022-11-27T01:31:23.901Z,95.50
2022-11-27T01:31:55.672Z,95.40
2022-11-27T01:32:27.469Z,95.40
2022-11-27T01:32:59.207Z,95.40
2022-11-27T01:33:30.952Z,95.40
2022-11-27T01:34:08.935Z,95.40
2022-11-27T01:34:40.919Z,95.40
2022-11-27T01:35:12.948Z,95.50
2022-11-27T01:35:57.254Z,95.40
2022-11-27T01:36:30.496Z,95.40
2022-11-27T01:37:02.258Z,95.40
2022-11-27T01:37:34.106Z,95.40
2022-11-27T01:38:05.973Z,95.40
2022-11-27T01:38:37.791Z,95.40
2022-11-27T01:39:18.209Z,95.40
2022-11-27T01:39:50.275Z,95.40
2022-11-27T01:40:22.698Z,95.40
2022-11-27T01:41:03.366Z,95.40
2022-11-27T01:41:39.771Z,95.40
2022-11-27T01:42:12.057Z,95.40
2022-11-27T01:42:43.963Z,95.40
2022-11-27T01:43:16.187Z,95.40
2022-11-27T01:43:54.523Z,95.40
2022-11-27T01:44:26.287Z,95.40
2022-11-27T01:44:58.236Z,95.50
2022-11-27T01:45:30.132Z,95.40
2022-11-27T01:46:02.122Z,95.40
2022-11-27T01:46:46.628Z,95.40
2022-11-27T01:47:37.757Z,95.40
2022-11-27T01:48:13.280Z,95.50
2022-11-27T01:48:47.685Z,95.50
2022-11-27T01:49:26.257Z,95.40
2022-11-27T01:50:08.877Z,95.50
2022-11-27T01:50:40.760Z,95.40
2022-11-27T01:51:12.848Z,95.40
2022-11-27T01:52:11.884Z,95.40
2022-11-27T01:52:49.690Z,95.40
2022-11-27T01:53:21.553Z,95.40
2022-11-27T01:53:54.838Z,95.40
2022-11-27T01:54:32.768Z,95.40
2022-11-27T01:55:23.026Z,95.50
2022-11-27T01:56:00.497Z,95.40
2022-11-27T01:56:32.293Z,95.50
2022-11-27T01:57:11.662Z,95.50
2022-11-27T01:57:48.365Z,95.40
2022-11-27T01:58:26.854Z,95.40
2022-11-27T01:58:59.958Z,95.40
2022-11-27T01:59:32.133Z,95.50
2022-11-27T02:00:06.507Z,95.40
2022-11-27T02:00:44.208Z,95.40
2022-11-27T02:01:16.260Z,95.40
2022-11-27T02:01:48.186Z,95.50
2022-11-27T02:02:20.049Z,95.50
2022-11-27T02:02:52.265Z,95.50
2022-11-27T02:03:24.538Z,95.40
2022-11-27T02:04:00.550Z,95.40
2022-11-27T02:04:32.349Z,95.40
2022-11-27T02:05:04.406Z,95.50
2022-11-27T02:05:36.380Z,95.40
2022-11-27T02:06:13.198Z,95.50
2022-11-27T02:06:45.265Z,95.50
2022-11-27T02:07:17.117Z,95.40
2022-11-27T02:07:50.901Z,95.50
2022-11-27T02:08:22.951Z,95.50
2022-11-27T02:08:55.998Z,95.50
2022-11-27T02:09:29.546Z,95.40
2022-11-27T02:10:02.001Z,96.10
2022-11-27T02:11:12.867Z,95.40
2022-11-27T02:11:50.615Z,96.00
2022-11-27T02:12:50.694Z,95.40
2022-11-27T02:13:34.430Z,95.40
2022-11-27T02:14:08.915Z,95.40
2022-11-27T02:14:54.746Z,95.50
2022-11-27T02:15:47.524Z,95.40
2022-11-27T02:16:28.211Z,95.40
2022-11-27T02:17:09.162Z,95.40
2022-11-27T02:17:46.214Z,95.50
2022-11-27T02:18:29.231Z,95.50
2022-11-27T02:19:32.890Z,95.40
2022-11-27T02:20:13.432Z,95.40
2022-11-27T02:21:05.309Z,95.50
2022-11-27T02:21:53.865Z,95.40
2022-11-27T02:22:34.286Z,95.40
2022-11-27T02:23:28.047Z,95.50
2022-11-27T02:24:13.308Z,95.40
2022-11-27T02:25:11.551Z,95.70
2022-11-27T02:25:49.465Z,95.50
2022-11-27T02:26:30.400Z,95.40
2022-11-27T02:27:35.333Z,95.40
2022-11-27T02:28:33.497Z,95.40
2022-11-27T02:29:12.474Z,95.40
2022-11-27T02:29:49.941Z,95.50
2022-11-27T02:30:21.949Z,95.50
2022-11-27T02:31:22.791Z,95.50
2022-11-27T02:32:08.999Z,95.50
2022-11-27T02:32:53.630Z,95.40
2022-11-27T02:33:26.475Z,95.50
2022-11-27T02:34:22.365Z,95.40
2022-11-27T02:35:09.899Z,95.40
2022-11-27T02:36:00.393Z,95.50
2022-11-27T02:36:35.472Z,95.50
2022-11-27T02:37:30.078Z,95.50
2022-11-27T02:38:14.477Z,95.50
2022-11-27T02:38:58.948Z,95.50
2022-11-27T02:39:39.998Z,95.80
2022-11-27T02:40:28.407Z,95.50
2022-11-27T02:41:20.615Z,95.50
2022-11-27T02:42:08.154Z,95.50
2022-11-27T02:42:54.242Z,95.50
2022-11-27T02:43:34.746Z,95.50
2022-11-27T02:44:10.007Z,95.50
2022-11-27T02:44:49.565Z,95.60
2022-11-27T02:45:48.373Z,95.50
2022-11-27T02:46:21.371Z,95.60
2022-11-27T02:46:54.954Z,95.50
2022-11-27T02:47:28.913Z,95.50
2022-11-27T02:48:01.144Z,95.50
2022-11-27T02:48:55.446Z,95.50
2022-11-27T02:49:28.510Z,96.10
2022-11-27T02:50:02.584Z,95.50
2022-11-27T02:50:38.971Z,95.60
2022-11-27T02:51:14.444Z,95.50
2022-11-27T02:51:51.381Z,95.60
2022-11-27T02:52:26.715Z,95.50
2022-11-27T02:53:05.176Z,95.50
2022-11-27T02:53:46.376Z,95.50
2022-11-27T02:54:25.499Z,95.50
2022-11-27T02:55:02.945Z,95.50
2022-11-27T02:55:40.297Z,95.50
2022-11-27T02:56:17.880Z,95.50
2022-11-27T02:56:53.577Z,95.70
2022-11-27T02:57:28.489Z,95.50
2022-11-27T02:58:03.575Z,95.60
2022-11-27T02:58:37.553Z,95.60
2022-11-27T02:59:13.803Z,95.60
2022-11-27T02:59:46.423Z,95.50
2022-11-27T03:00:18.870Z,95.50
2022-11-27T03:00:51.098Z,95.50
2022-11-27T03:01:24.547Z,95.50
2022-11-27T03:02:04.404Z,95.50
2022-11-27T03:02:43.630Z,95.60
2022-11-27T03:03:21.050Z,95.50
2022-11-27T03:03:56.810Z,95.50
2022-11-27T03:04:39.419Z,95.50
2022-11-27T03:05:17.141Z,95.50
2022-11-27T03:05:53.537Z,95.50
2022-11-27T03:06:36.328Z,96.00
2022-11-27T03:07:16.585Z,95.50
2022-11-27T03:07:56.120Z,95.50
2022-11-27T03:08:43.032Z,95.60
2022-11-27T03:09:46.199Z,95.50
2022-11-27T03:10:26.749Z,95.60
2022-11-27T03:11:10.804Z,95.50
2022-11-27T03:11:43.545Z,95.50
2022-11-27T03:12:17.709Z,95.50
2022-11-27T03:12:51.039Z,95.00
2022-11-27T03:13:23.201Z,95.50
2022-11-27T03:14:00.505Z,95.50
2022-11-27T03:14:34.822Z,95.50
2022-11-27T03:15:07.434Z,95.50
2022-11-27T03:16:09.102Z,95.50
2022-11-27T03:16:55.997Z,95.80
2022-11-27T03:17:45.954Z,95.50
2022-11-27T03:18:32.983Z,95.80
2022-11-27T03:19:15.569Z,95.50
2022-11-27T03:19:55.626Z,95.50
2022-11-27T03:20:32.805Z,95.50
2022-11-27T03:21:22.062Z,95.40
2022-11-27T03:21:59.926Z,95.40
2022-11-27T03:22:31.851Z,95.50
2022-11-27T03:23:03.711Z,95.50
2022-11-27T03:23:35.615Z,95.40
2022-11-27T03:24:09.137Z,95.50
2022-11-27T03:24:41.382Z,95.50
2022-11-27T03:25:13.755Z,95.50
2022-11-27T03:25:45.610Z,95.40
2022-11-27T03:26:17.486Z,95.40
2022-11-27T03:26:49.874Z,95.40
2022-11-27T03:27:30.162Z,95.40
2022-11-27T03:28:06.072Z,94.90
2022-11-27T03:28:39.111Z,95.40
2022-11-27T03:29:39.640Z,95.40
2022-11-27T03:30:13.935Z,95.40
2022-11-27T03:30:45.747Z,95.40
2022-11-27T03:31:17.833Z,95.40
2022-11-27T03:31:50.260Z,95.40
2022-11-27T03:32:22.673Z,95.40
2022-11-27T03:32:55.505Z,95.40
2022-11-27T03:33:27.278Z,95.40
2022-11-27T03:33:59.355Z,95.40
2022-11-27T03:34:32.368Z,95.40
2022-11-27T03:35:07.974Z,95.40
2022-11-27T03:35:39.771Z,95.40
2022-11-27T03:36:17.099Z,95.40
2022-11-27T03:36:48.929Z,95.40
2022-11-27T03:37:22.012Z,95.40
2022-11-27T03:37:55.707Z,95.40
2022-11-27T03:38:28.038Z,95.40
2022-11-27T03:39:00.052Z,95.40
2022-11-27T03:39:32.978Z,95.30
2022-11-27T03:40:08.380Z,95.30
2022-11-27T03:41:07.075Z,95.30
2022-11-27T03:42:09.954Z,95.30
2022-11-27T03:43:00.528Z,95.30
2022-11-27T03:43:42.019Z,95.30
2022-11-27T03:44:43.526Z,95.30
2022-11-27T03:45:49.226Z,95.40
2022-11-27T03:46:51.152Z,95.30
2022-11-27T03:47:49.062Z,95.30
2022-11-27T03:49:02.861Z,95.30
2022-11-27T03:49:49.621Z,95.30
2022-11-27T03:50:51.399Z,95.40
2022-11-27T03:51:59.067Z,95.40
2022-11-27T03:52:46.626Z,95.40
2022-11-27T03:53:27.397Z,95.40
2022-11-27T03:54:16.584Z,95.30
2022-11-27T03:55:12.387Z,95.40
2022-11-27T03:55:55.804Z,95.40
2022-11-27T03:56:40.773Z,95.40
2022-11-27T03:57:20.349Z,95.40
2022-11-27T03:58:11.815Z,95.30
2022-11-27T03:59:12.471Z,95.30
2022-11-27T03:59:47.976Z,95.30
2022-11-27T04:00:20.152Z,95.30
2022-11-27T04:00:53.862Z,95.30
2022-11-27T04:01:27.202Z,95.30
2022-11-27T04:01:59.268Z,95.30
2022-11-27T04:02:43.577Z,95.40
2022-11-27T04:03:27.153Z,95.30
2022-11-27T04:03:59.371Z,95.30
2022-11-27T04:04:31.703Z,95.40
2022-11-27T04:05:03.754Z,95.30
2022-11-27T04:05:35.700Z,95.60
2022-11-27T04:06:07.627Z,95.40
2022-11-27T04:06:39.617Z,95.40
2022-11-27T04:07:17.923Z,95.40
2022-11-27T04:07:50.050Z,95.90
2022-11-27T04:08:22.247Z,95.40
2022-11-27T04:08:55.093Z,95.30
2022-11-27T04:09:26.891Z,95.30
2022-11-27T04:09:58.633Z,95.30
2022-11-27T04:10:30.580Z,95.30
2022-11-27T04:11:02.475Z,95.30
2022-11-27T04:11:34.215Z,95.30
2022-11-27T04:12:06.156Z,95.40
2022-11-27T04:12:38.049Z,95.40
2022-11-27T04:13:09.815Z,95.30
2022-11-27T04:13:41.709Z,95.40
2022-11-27T04:14:13.445Z,95.30
2022-11-27T04:14:45.128Z,95.30
2022-11-27T04:15:16.990Z,95.30
2022-11-27T04:15:48.847Z,95.30
2022-11-27T04:16:20.732Z,95.40
2022-11-27T04:16:52.567Z,95.30
2022-11-27T04:17:24.464Z,95.30
2022-11-27T04:17:56.240Z,95.60
2022-11-27T04:18:28.098Z,95.30
2022-11-27T04:19:00.043Z,95.30
2022-11-27T04:19:31.746Z,95.30
2022-11-27T04:20:04.347Z,95.30
2022-11-27T04:20:36.200Z,95.30
2022-11-27T04:21:08.052Z,95.20
2022-11-27T04:21:39.743Z,95.30
2022-11-27T04:22:11.465Z,95.30
2022-11-27T04:22:43.176Z,95.30
2022-11-27T04:23:15.035Z,95.30
2022-11-27T04:23:46.898Z,95.30
2022-11-27T04:24:18.643Z,95.40
2022-11-27T04:24:51.608Z,95.30
2022-11-27T04:25:23.602Z,95.20
2022-11-27T04:25:55.444Z,95.20
2022-11-27T04:26:27.281Z,95.30
2022-11-27T04:26:59.039Z,95.30
2022-11-27T04:27:30.897Z,95.30
2022-11-27T04:28:02.758Z,95.30
2022-11-27T04:28:34.943Z,95.30
2022-11-27T04:29:06.698Z,95.20
2022-11-27T04:29:38.640Z,95.30
2022-11-27T04:30:12.577Z,95.20
2022-11-27T04:30:45.144Z,95.20
2022-11-27T04:31:16.993Z,95.30
2022-11-27T04:31:48.929Z,95.20
2022-11-27T04:32:20.736Z,95.30
2022-11-27T04:32:52.494Z,95.30
2022-11-27T04:33:24.643Z,95.30
2022-11-27T04:33:56.386Z,95.30
2022-11-27T04:34:28.244Z,95.30
2022-11-27T04:35:00.032Z,95.30
2022-11-27T04:35:31.947Z,95.30
2022-11-27T04:36:04.116Z,95.30
2022-11-27T04:36:39.272Z,95.30
2022-11-27T04:37:11.534Z,95.30
2022-11-27T04:37:43.387Z,95.30
2022-11-27T04:38:15.248Z,95.30
2022-11-27T04:38:46.992Z,95.40
2022-11-27T04:39:18.794Z,95.60
2022-11-27T04:39:50.637Z,95.40
2022-11-27T04:40:22.430Z,95.40
2022-11-27T04:40:54.307Z,95.40
2022-11-27T04:41:26.073Z,95.40
2022-11-27T04:41:57.891Z,95.40
2022-11-27T04:42:29.714Z,95.40
2022-11-27T04:43:01.438Z,95.40
2022-11-27T04:43:33.226Z,95.60
2022-11-27T04:44:05.643Z,95.40
2022-11-27T04:44:37.553Z,95.40
2022-11-27T04:45:09.985Z,95.30
2022-11-27T04:45:41.727Z,95.40
2022-11-27T04:46:13.554Z,95.40
2022-11-27T04:46:45.375Z,95.40
2022-11-27T04:47:17.287Z,95.40
2022-11-27T04:47:49.078Z,95.40
2022-11-27T04:48:20.906Z,95.40
2022-11-27T04:48:52.638Z,95.40
2022-11-27T04:49:24.368Z,95.40
2022-11-27T04:49:56.092Z,95.70
2022-11-27T04:50:27.915Z,95.40
2022-11-27T04:51:01.529Z,95.40
2022-11-27T04:51:33.910Z,95.40
2022-11-27T04:52:05.906Z,95.40
2022-11-27T04:52:37.870Z,95.70
2022-11-27T04:53:09.630Z,95.50
2022-11-27T04:53:42.172Z,95.40
2022-11-27T04:54:13.960Z,95.40
2022-11-27T04:54:45.737Z,95.40
2022-11-27T04:55:17.557Z,95.70
2022-11-27T04:55:52.211Z,95.50
2022-11-27T04:56:24.132Z,95.50
2022-11-27T04:56:55.916Z,95.50
2022-11-27T04:57:28.150Z,95.50
2022-11-27T04:57:59.990Z,95.70
2022-11-27T04:58:31.795Z,95.50
2022-11-27T04:59:04.431Z,95.60
2022-11-27T04:59:36.154Z,95.50
2022-11-27T05:00:08.738Z,95.50
2022-11-27T05:00:40.568Z,95.60
2022-11-27T05:01:12.430Z,95.50
2022-11-27T05:01:44.185Z,95.60
2022-11-27T05:02:16.178Z,95.60
2022-11-27T05:02:48.105Z,95.60
2022-11-27T05:03:19.992Z,95.50
2022-11-27T05:03:51.825Z,95.50
2022-11-27T05:04:23.894Z,95.50
2022-11-27T05:04:55.726Z,95.50
2022-11-27T05:05:27.532Z,95.60
2022-11-27T05:05:59.298Z,95.60
2022-11-27T05:06:31.115Z,95.60
2022-11-27T05:07:02.858Z,95.60
2022-11-27T05:07:34.723Z,95.60
2022-11-27T05:08:06.555Z,95.50
2022-11-27T05:08:38.333Z,95.50
2022-11-27T05:09:10.235Z,95.50
2022-11-27T05:09:41.953Z,95.50
2022-11-27T05:10:13.744Z,95.60
2022-11-27T05:10:46.882Z,95.60
2022-11-27T05:11:18.668Z,95.90
2022-11-27T05:11:50.564Z,95.50
2022-11-27T05:12:22.406Z,95.70
2022-11-27T05:12:54.166Z,95.60
2022-11-27T05:13:25.987Z,95.70
2022-11-27T05:14:17.830Z,95.60
2022-11-27T05:14:49.746Z,95.50
2022-11-27T05:15:21.559Z,95.50
2022-11-27T05:15:53.421Z,95.60
2022-11-27T05:16:25.175Z,95.60
2022-11-27T05:16:59.333Z,95.60
2022-11-27T05:17:31.195Z,95.60
2022-11-27T05:18:03.029Z,95.60
2022-11-27T05:18:35.452Z,95.70
2022-11-27T05:19:08.561Z,95.70
2022-11-27T05:19:40.355Z,95.60
2022-11-27T05:20:12.287Z,95.60
2022-11-27T05:20:44.082Z,95.70
2022-11-27T05:21:15.851Z,95.70
2022-11-27T05:21:49.121Z,95.70
2022-11-27T05:22:20.895Z,95.70
2022-11-27T05:22:52.682Z,95.70
2022-11-27T05:23:24.540Z,95.70
2022-11-27T05:23:56.332Z,95.70
2022-11-27T05:24:29.144Z,95.70
2022-11-27T05:25:00.909Z,95.70
2022-11-27T05:25:32.645Z,95.70
2022-11-27T05:26:04.475Z,95.70
2022-11-27T05:26:37.312Z,95.70
2022-11-27T05:27:09.104Z,95.80
2022-11-27T05:27:40.817Z,95.80
2022-11-27T05:28:12.606Z,95.70
2022-11-27T05:28:44.336Z,95.70
2022-11-27T05:29:16.631Z,95.70
2022-11-27T05:29:48.412Z,95.70
2022-11-27T05:30:20.150Z,95.70
2022-11-27T05:30:52.095Z,95.70
2022-11-27T05:31:24.232Z,95.70
2022-11-27T05:31:56.190Z,95.70
2022-11-27T05:32:27.968Z,95.70
2022-11-27T05:32:59.718Z,95.70
2022-11-27T05:33:31.491Z,95.70
2022-11-27T05:34:04.071Z,95.70
2022-11-27T05:34:35.922Z,95.60
2022-11-27T05:35:07.972Z,95.70
2022-11-27T05:35:39.913Z,95.70
2022-11-27T05:36:11.667Z,95.70
2022-11-27T05:36:43.965Z,95.80
2022-11-27T05:37:19.415Z,95.70
2022-11-27T05:37:51.819Z,95.70
2022-11-27T05:38:23.564Z,95.90
2022-11-27T05:38:55.344Z,95.60
2022-11-27T05:39:27.092Z,95.70
2022-11-27T05:39:58.923Z,95.60
2022-11-27T05:40:31.093Z,95.60
2022-11-27T05:41:02.859Z,96.10
2022-11-27T05:41:36.474Z,95.70
2022-11-27T05:42:08.255Z,95.60
2022-11-27T05:42:40.020Z,95.70
2022-11-27T05:43:11.773Z,95.80
2022-11-27T05:43:43.586Z,95.70
2022-11-27T05:44:15.857Z,95.60
2022-11-27T05:44:47.574Z,95.70
2022-11-27T05:45:19.350Z,95.70
2022-11-27T05:45:51.101Z,95.70
2022-11-27T05:46:23.642Z,95.60
2022-11-27T05:46:57.101Z,95.60
2022-11-27T05:47:28.989Z,95.60
2022-11-27T05:48:00.726Z,95.70
2022-11-27T05:48:33.005Z,95.60
2022-11-27T05:49:06.208Z,95.60
2022-11-27T05:49:39.133Z,95.60
2022-11-27T05:50:10.941Z,95.60
2022-11-27T05:50:42.672Z,95.60
2022-11-27T05:51:15.259Z,95.60
2022-11-27T05:51:51.388Z,95.60
2022-11-27T05:52:23.548Z,95.70
2022-11-27T05:52:55.332Z,95.70
2022-11-27T05:53:27.444Z,95.70
2022-11-27T05:53:59.164Z,95.60
2022-11-27T05:54:30.886Z,95.60
2022-11-27T05:55:02.747Z,95.60
2022-11-27T05:55:34.466Z,95.70
2022-11-27T05:56:12.096Z,95.60
2022-11-27T05:56:43.840Z,95.60
2022-11-27T05:57:15.609Z,95.60
2022-11-27T05:57:47.363Z,95.60
2022-11-27T05:58:19.249Z,95.10
2022-11-27T05:58:51.625Z,95.60
2022-11-27T05:59:23.456Z,95.60
2022-11-27T05:59:55.211Z,95.70
2022-11-27T06:00:27.158Z,95.60
2022-11-27T06:00:59.925Z,95.60
2022-11-27T06:01:31.780Z,95.60
2022-11-27T06:02:03.681Z,95.60
2022-11-27T06:02:35.571Z,95.60
2022-11-27T06:03:07.535Z,95.60
2022-11-27T06:03:39.619Z,95.70
2022-11-27T06:04:11.479Z,95.60
2022-11-27T06:04:43.293Z,95.60
2022-11-27T06:05:15.186Z,95.70
2022-11-27T06:05:46.991Z,95.60
2022-11-27T06:06:20.060Z,95.60
2022-11-27T06:06:51.865Z,95.60
2022-11-27T06:07:23.776Z,95.60
2022-11-27T06:07:55.681Z,95.60
2022-11-27T06:08:27.525Z,95.60
2022-11-27T06:08:59.310Z,95.60
2022-11-27T06:09:31.069Z,96.10
2022-11-27T06:10:02.832Z,95.60
2022-11-27T06:10:37.420Z,95.60
2022-11-27T06:11:15.369Z,95.60
2022-11-27T06:11:47.168Z,95.60
2022-11-27T06:12:18.897Z,95.60
2022-11-27T06:12:51.234Z,95.60
2022-11-27T06:13:23.047Z,95.60
2022-11-27T06:13:54.817Z,95.60
2022-11-27T06:14:26.595Z,95.60
2022-11-27T06:14:58.500Z,95.60
2022-11-27T06:15:30.369Z,95.60
2022-11-27T06:16:14.259Z,95.60
2022-11-27T06:16:46.034Z,95.70
2022-11-27T06:17:17.887Z,95.60
2022-11-27T06:17:50.425Z,95.60
2022-11-27T06:18:22.213Z,95.80
2022-11-27T06:18:55.678Z,95.60
2022-11-27T06:19:27.478Z,95.60
2022-11-27T06:19:59.340Z,95.80
2022-11-27T06:20:31.194Z,95.60
2022-11-27T06:21:07.649Z,95.60
2022-11-27T06:21:39.417Z,95.60
2022-11-27T06:22:11.224Z,95.60
2022-11-27T06:22:42.945Z,95.60
2022-11-27T06:23:14.679Z,95.60
2022-11-27T06:23:46.950Z,95.70
2022-11-27T06:24:18.849Z,95.60
2022-11-27T06:24:50.843Z,95.60
2022-11-27T06:25:23.158Z,95.60
2022-11-27T06:25:54.868Z,95.60
2022-11-27T06:26:29.315Z,95.60
2022-11-27T06:27:01.108Z,95.60
2022-11-27T06:27:34.698Z,95.60
2022-11-27T06:28:06.459Z,95.60
2022-11-27T06:28:38.289Z,95.60
2022-11-27T06:29:10.427Z,95.60
2022-11-27T06:29:42.228Z,95.70
2022-11-27T06:30:14.154Z,95.60
2022-11-27T06:30:46.235Z,95.60
2022-11-27T06:31:20.703Z,95.60
2022-11-27T06:31:52.522Z,95.60
2022-11-27T06:32:24.319Z,95.60
2022-11-27T06:32:56.058Z,95.60
2022-11-27T06:33:28.041Z,95.80
2022-11-27T06:34:00.815Z,95.60
2022-11-27T06:34:32.795Z,95.60
2022-11-27T06:35:05.006Z,95.60
2022-11-27T06:35:36.731Z,95.60
2022-11-27T06:36:09.613Z,95.60
2022-11-27T06:36:42.300Z,95.60
2022-11-27T06:37:14.144Z,96.00
2022-11-27T06:37:45.892Z,95.70
2022-11-27T06:38:17.618Z,95.60
2022-11-27T06:38:49.737Z,95.70
2022-11-27T06:39:21.543Z,95.70
2022-11-27T06:39:53.268Z,95.70
2022-11-27T06:40:25.001Z,95.70
2022-11-27T06:41:03.554Z,95.70
2022-11-27T06:41:35.732Z,95.70
2022-11-27T06:42:07.662Z,95.70
2022-11-27T06:42:39.373Z,95.60
2022-11-27T06:43:11.102Z,95.60
2022-11-27T06:43:43.480Z,95.90
2022-11-27T06:44:15.232Z,95.60
2022-11-27T06:44:47.374Z,95.70
2022-11-27T06:45:19.127Z,95.70
2022-11-27T06:45:58.557Z,95.70
2022-11-27T06:46:30.617Z,95.70
2022-11-27T06:47:02.468Z,95.90
2022-11-27T06:47:34.280Z,95.70
2022-11-27T06:48:06.143Z,95.60
2022-11-27T06:48:37.913Z,95.70
2022-11-27T06:49:10.083Z,96.10
2022-11-27T06:49:41.811Z,95.70
2022-11-27T06:50:13.616Z,95.80
2022-11-27T06:50:45.325Z,95.70
2022-11-27T06:51:20.205Z,95.70
2022-11-27T06:51:51.938Z,95.70
2022-11-27T06:52:23.724Z,95.70
2022-11-27T06:52:55.424Z,95.60
2022-11-27T06:53:27.456Z,95.60
2022-11-27T06:54:01.156Z,95.70
2022-11-27T06:54:32.937Z,95.60
2022-11-27T06:55:05.032Z,95.70
2022-11-27T06:55:38.380Z,95.60
2022-11-27T06:56:16.361Z,95.60
2022-11-27T06:56:50.349Z,95.70
2022-11-27T06:57:22.058Z,95.60
2022-11-27T06:57:53.796Z,95.60
2022-11-27T06:58:30.876Z,95.70
2022-11-27T06:59:03.054Z,95.90
2022-11-27T06:59:34.764Z,95.70
2022-11-27T07:00:07.191Z,95.80
2022-11-27T07:00:39.017Z,95.60
2022-11-27T07:01:16.887Z,95.50
2022-11-27T07:01:48.875Z,95.60
2022-11-27T07:02:20.777Z,95.60
2022-11-27T07:02:55.467Z,95.60
2022-11-27T07:03:27.794Z,95.80
2022-11-27T07:04:00.282Z,95.60
2022-11-27T07:04:32.192Z,95.60
2022-11-27T07:05:04.131Z,95.60
2022-11-27T07:05:36.912Z,95.60
2022-11-27T07:06:10.979Z,95.60
2022-11-27T07:06:43.428Z,95.60
2022-11-27T07:07:15.771Z,95.60
2022-11-27T07:07:47.605Z,95.60
2022-11-27T07:08:19.479Z,95.60
2022-11-27T07:08:52.984Z,95.60
2022-11-27T07:09:24.730Z,95.60
2022-11-27T07:09:56.515Z,95.10
2022-11-27T07:10:28.794Z,95.60
2022-11-27T07:11:08.819Z,95.60
2022-11-27T07:11:40.729Z,95.60
2022-11-27T07:12:12.510Z,95.70
2022-11-27T07:12:44.225Z,95.60
2022-11-27T07:13:16.181Z,95.60
2022-11-27T07:13:49.964Z,95.60
2022-11-27T07:14:21.805Z,95.90
2022-11-27T07:14:53.550Z,95.60
2022-11-27T07:15:25.399Z,95.70
2022-11-27T07:16:01.626Z,95.60
2022-11-27T07:16:36.045Z,95.60
2022-11-27T07:17:07.820Z,95.60
2022-11-27T07:17:39.653Z,95.50
2022-11-27T07:18:11.885Z,95.60
2022-11-27T07:18:49.594Z,95.60
2022-11-27T07:19:21.449Z,95.60
2022-11-27T07:19:53.177Z,95.60
2022-11-27T07:20:24.982Z,95.80
2022-11-27T07:20:56.972Z,95.60
2022-11-27T07:21:29.242Z,95.60
2022-11-27T07:22:01.033Z,95.40
2022-11-27T07:22:32.998Z,95.60
2022-11-27T07:23:04.798Z,95.60
2022-11-27T07:23:37.639Z,95.70
2022-11-27T07:24:09.342Z,95.60
2022-11-27T07:24:41.454Z,95.60
2022-11-27T07:25:13.409Z,95.60
2022-11-27T07:25:45.685Z,95.60
2022-11-27T07:26:20.550Z,95.60
2022-11-27T07:26:52.292Z,95.60
2022-11-27T07:27:24.077Z,95.60